createdAt,value
2019-03-12T00:00:09.405Z,71.76
2019-03-12T00:03:16.167Z,72.09
2019-03-12T00:06:21.255Z,72.30
2019-03-12T00:09:26.450Z,73.67
2019-03-12T00:12:31.630Z,72.50
2019-03-12T00:15:36.848Z,71.79
2019-03-12T00:18:42.037Z,72.39
2019-03-12T00:21:47.191Z,72.84
2019-03-12T00:24:52.562Z,71.85
2019-03-12T00:27:57.742Z,72.44
2019-03-12T00:31:02.880Z,72.07
2019-03-12T00:34:08.009Z,72.29
2019-03-12T00:37:13.196Z,71.55
2019-03-12T00:40:18.356Z,71.71
2019-03-12T00:43:23.539Z,73.29
2019-03-12T00:46:28.643Z,71.65
2019-03-12T00:49:33.756Z,71.27
2019-03-12T00:52:38.875Z,72.32
2019-03-12T00:55:44.046Z,74.51
2019-03-12T00:58:49.216Z,72.30
2019-03-12T01:01:54.305Z,73.11
2019-03-12T01:04:59.408Z,74.23
2019-03-12T01:08:04.563Z,72.95
2019-03-12T01:11:09.703Z,72.62
2019-03-12T01:14:14.852Z,72.07
2019-03-12T01:17:20.074Z,72.03
2019-03-12T01:20:25.214Z,70.90
2019-03-12T01:23:30.358Z,71.22
2019-03-12T01:26:35.443Z,71.45
2019-03-12T01:29:40.634Z,70.00
2019-03-12T01:32:45.844Z,71.66
2019-03-12T01:35:52.020Z,71.70
2019-03-12T01:38:57.127Z,72.49
2019-03-12T01:42:02.236Z,71.27
2019-03-12T01:45:09.005Z,70.42
2019-03-12T01:48:14.144Z,71.16
2019-03-12T01:51:19.281Z,69.50
2019-03-12T01:54:24.401Z,69.98
2019-03-12T01:57:29.527Z,70.13
2019-03-12T02:00:34.715Z,70.51
2019-03-12T02:03:39.775Z,69.52
2019-03-12T02:06:44.928Z,69.84
2019-03-12T02:09:50.011Z,68.17
2019-03-12T02:12:55.110Z,68.40
2019-03-12T02:16:00.335Z,68.48
2019-03-12T02:19:05.496Z,69.95
2019-03-12T02:22:10.600Z,70.96
2019-03-12T02:25:16.905Z,71.09
2019-03-12T02:28:21.989Z,70.84
2019-03-12T02:31:27.187Z,71.96
2019-03-12T02:34:33.314Z,71.18
2019-03-12T02:37:38.485Z,69.51
2019-03-12T02:40:43.618Z,70.47
2019-03-12T02:43:48.821Z,70.06
2019-03-12T02:46:53.981Z,70.56
2019-03-12T02:49:59.147Z,70.70
2019-03-12T02:53:04.279Z,69.71
2019-03-12T02:56:09.418Z,70.06
2019-03-12T02:59:14.618Z,69.67
2019-03-12T03:02:19.755Z,69.07
2019-03-12T03:05:24.977Z,69.26
2019-03-12T03:08:32.389Z,70.98
2019-03-12T03:11:37.513Z,70.44
2019-03-12T03:14:42.678Z,69.83
2019-03-12T03:17:47.785Z,70.60
2019-03-12T03:20:52.925Z,70.23
2019-03-12T03:23:58.122Z,70.91
2019-03-12T03:27:03.313Z,71.33
2019-03-12T03:30:12.239Z,71.21
2019-03-12T03:33:17.378Z,71.40
2019-03-12T03:36:22.593Z,71.76
2019-03-12T03:39:27.801Z,72.11
2019-03-12T03:42:32.984Z,72.25
2019-03-12T03:45:38.129Z,71.14
2019-03-12T03:48:43.287Z,72.91
2019-03-12T03:51:48.449Z,71.80
2019-03-12T03:54:53.610Z,72.56
2019-03-12T03:57:58.755Z,72.16
2019-03-12T04:01:04.443Z,73.48
2019-03-12T04:04:09.582Z,71.67
2019-03-12T04:07:14.747Z,72.34
2019-03-12T04:10:19.888Z,73.11
2019-03-12T04:13:25.023Z,71.81
2019-03-12T04:16:30.133Z,73.06
2019-03-12T04:19:35.261Z,73.74
2019-03-12T04:22:40.381Z,72.25
2019-03-12T04:25:45.491Z,74.07
2019-03-12T04:28:50.612Z,74.96
2019-03-12T04:31:55.753Z,73.73
2019-03-12T04:35:00.952Z,74.43
2019-03-12T04:38:07.401Z,76.34
2019-03-12T04:41:12.582Z,77.27
2019-03-12T04:44:17.711Z,77.87
2019-03-12T04:47:22.796Z,77.84
2019-03-12T04:50:27.979Z,79.63
2019-03-12T04:53:33.073Z,79.09
2019-03-12T04:56:38.163Z,79.80
2019-03-12T04:59:43.361Z,80.41
2019-03-12T05:02:48.680Z,80.99
2019-03-12T05:05:53.802Z,82.16
2019-03-12T05:08:58.922Z,83.37
2019-03-12T05:12:04.094Z,83.96
2019-03-12T05:15:11.242Z,85.01
2019-03-12T05:18:16.552Z,85.72
2019-03-12T05:21:21.642Z,86.63
2019-03-12T05:24:26.762Z,87.24
2019-03-12T05:27:31.978Z,87.86
2019-03-12T05:30:37.084Z,88.13
2019-03-12T05:33:42.254Z,88.42
2019-03-12T05:36:47.389Z,88.78
2019-03-12T05:39:52.481Z,88.45
2019-03-12T05:42:57.667Z,88.71
2019-03-12T05:46:02.904Z,88.85
2019-03-12T05:49:08.012Z,88.54
2019-03-12T05:52:13.133Z,88.81
2019-03-12T05:55:18.286Z,88.78
2019-03-12T05:58:23.389Z,89.04
2019-03-12T06:01:28.670Z,89.34
2019-03-12T06:04:33.789Z,89.44
2019-03-12T06:07:38.948Z,89.55
2019-03-12T06:10:45.218Z,88.82
2019-03-12T06:13:50.338Z,87.74
2019-03-12T06:16:55.437Z,87.71
2019-03-12T06:20:00.661Z,86.69
2019-03-12T06:23:06.123Z,86.15
2019-03-12T06:26:11.260Z,85.30
2019-03-12T06:29:16.554Z,85.27
2019-03-12T06:32:29.165Z,83.97
2019-03-12T06:35:50.803Z,83.56
2019-03-12T06:39:12.774Z,82.93
2019-03-12T06:42:32.348Z,82.82
2019-03-12T06:45:56.469Z,82.15
2019-03-12T06:49:12.289Z,81.90
2019-03-12T06:52:40.545Z,80.82
2019-03-12T06:56:08.492Z,79.40
2019-03-12T06:59:35.588Z,77.24
2019-03-12T07:02:48.335Z,76.56
2019-03-12T07:06:27.582Z,74.35
2019-03-12T07:09:44.978Z,72.58
2019-03-12T07:13:16.375Z,72.15
2019-03-12T07:16:39.117Z,72.01
2019-03-12T07:20:01.823Z,71.25
2019-03-12T07:23:22.513Z,70.96
2019-03-12T07:26:45.637Z,69.00
2019-03-12T07:30:16.685Z,70.11
2019-03-12T07:33:40.745Z,69.03
2019-03-12T07:36:54.793Z,69.86
2019-03-12T07:40:28.062Z,69.08
2019-03-12T07:43:43.675Z,68.79
2019-03-12T07:47:16.903Z,69.02
2019-03-12T07:50:28.941Z,67.00
2019-03-12T07:54:05.182Z,66.81
2019-03-12T07:57:23.071Z,66.73
2019-03-12T08:00:38.061Z,66.77
2019-03-12T08:04:02.949Z,64.95
2019-03-12T08:07:20.656Z,63.46
2019-03-12T08:10:43.697Z,63.86
2019-03-12T08:14:06.498Z,63.77
2019-03-12T08:17:30.625Z,65.17
2019-03-12T08:20:47.662Z,62.04
2019-03-12T08:24:01.662Z,61.97
2019-03-12T08:27:26.046Z,61.86
2019-03-12T08:30:48.998Z,61.37
2019-03-12T08:34:19.193Z,60.99
2019-03-12T08:37:43.477Z,60.02
2019-03-12T08:41:16.458Z,59.44
2019-03-12T08:44:43.733Z,60.83
2019-03-12T08:48:04.380Z,58.23
2019-03-12T08:51:26.562Z,58.61
2019-03-12T08:54:53.767Z,57.51
2019-03-12T08:58:13.951Z,56.06
2019-03-12T09:01:36.085Z,57.49
2019-03-12T09:05:05.948Z,58.25
2019-03-12T09:08:19.362Z,56.83
2019-03-12T09:11:55.645Z,55.98
2019-03-12T09:15:36.767Z,56.73
2019-03-12T09:19:04.254Z,55.73
2019-03-12T09:22:28.356Z,57.17
2019-03-12T09:25:45.724Z,56.57
2019-03-12T09:29:05.966Z,57.23
2019-03-12T09:32:40.249Z,56.22
2019-03-12T09:36:13.506Z,54.05
2019-03-12T09:39:24.921Z,53.99
2019-03-12T09:42:48.991Z,54.10
2019-03-12T09:46:22.122Z,55.21
2019-03-12T09:49:45.134Z,54.91
2019-03-12T09:52:59.908Z,52.30
2019-03-12T09:56:14.233Z,52.87
2019-03-12T09:59:41.811Z,50.99
2019-03-12T10:03:05.914Z,51.12
2019-03-12T10:06:22.405Z,50.80
2019-03-12T10:09:45.242Z,49.40
2019-03-12T10:13:01.207Z,49.55
2019-03-12T10:16:31.327Z,49.24
2019-03-12T10:19:50.350Z,48.62
2019-03-12T10:23:27.460Z,48.36
2019-03-12T10:26:46.805Z,46.45
2019-03-12T10:30:20.120Z,47.29
2019-03-12T10:33:36.207Z,44.89
2019-03-12T10:37:11.205Z,46.15
2019-03-12T10:40:27.586Z,48.21
2019-03-12T10:43:44.701Z,46.80
2019-03-12T10:46:56.865Z,47.02
2019-03-12T10:50:02.119Z,45.90
2019-03-12T10:53:07.611Z,45.96
2019-03-12T10:56:12.786Z,45.48
2019-03-12T10:59:17.992Z,45.55
2019-03-12T11:02:23.175Z,45.30
2019-03-12T11:05:28.350Z,44.56
2019-03-12T11:08:33.464Z,44.18
2019-03-12T11:11:38.663Z,44.07
2019-03-12T11:14:44.864Z,44.41
2019-03-12T11:17:50.509Z,43.12
2019-03-12T11:20:58.566Z,43.52
2019-03-12T11:24:02.743Z,41.64
2019-03-12T11:27:07.884Z,42.37
2019-03-12T11:30:15.172Z,40.67
2019-03-12T11:33:20.498Z,40.95
2019-03-12T11:36:25.639Z,40.40
2019-03-12T11:39:30.828Z,40.87
2019-03-12T11:42:36.000Z,42.04
2019-03-12T11:45:41.320Z,41.11
2019-03-12T11:48:46.506Z,42.54
2019-03-12T11:51:51.620Z,42.39
2019-03-12T11:54:56.724Z,42.04
2019-03-12T11:58:02.001Z,42.05
2019-03-12T12:01:08.262Z,41.38
2019-03-12T12:04:13.517Z,42.38
2019-03-12T12:07:18.596Z,42.47
2019-03-12T12:10:24.143Z,43.02
2019-03-12T12:13:29.228Z,42.31
2019-03-12T12:16:34.339Z,40.58
2019-03-12T12:19:39.584Z,42.17
2019-03-12T12:22:44.737Z,41.38
2019-03-12T12:25:49.872Z,41.47
2019-03-12T12:28:55.042Z,40.46
2019-03-12T12:32:00.264Z,39.53
2019-03-12T12:35:06.227Z,38.25
2019-03-12T12:38:12.413Z,37.80
2019-03-12T12:41:17.503Z,38.77
2019-03-12T12:44:22.772Z,39.67
2019-03-12T12:47:27.891Z,37.42
2019-03-12T12:50:33.072Z,38.87
2019-03-12T12:53:38.336Z,40.43
2019-03-12T12:56:43.494Z,38.10
2019-03-12T12:59:48.643Z,38.43
2019-03-12T13:02:53.844Z,38.08
2019-03-12T13:05:59.080Z,38.56
2019-03-12T13:09:05.650Z,39.03
2019-03-12T13:12:12.374Z,39.70
2019-03-12T13:15:17.504Z,40.99
2019-03-12T13:18:22.625Z,40.90
2019-03-12T13:21:27.879Z,40.74
2019-03-12T13:24:33.145Z,40.68
2019-03-12T13:27:42.579Z,41.49
2019-03-12T13:30:45.091Z,41.11
2019-03-12T13:33:50.478Z,40.86
2019-03-12T13:36:55.562Z,40.26
2019-03-12T13:40:01.325Z,39.53
2019-03-12T13:43:07.209Z,39.67
2019-03-12T13:46:12.425Z,39.63
2019-03-12T13:49:17.641Z,39.35
2019-03-12T13:52:22.832Z,39.17
2019-03-12T13:55:27.946Z,38.77
2019-03-12T13:58:33.117Z,38.89
2019-03-12T14:01:38.251Z,38.49
2019-03-12T14:04:44.634Z,39.45
2019-03-12T14:07:49.760Z,39.64
2019-03-12T14:10:54.989Z,39.42
2019-03-12T14:14:00.158Z,39.06
2019-03-12T14:17:08.283Z,38.54
2019-03-12T14:20:44.190Z,38.07
2019-03-12T14:23:58.710Z,38.74
2019-03-12T14:27:03.946Z,38.68
2019-03-12T14:30:09.271Z,39.96
2019-03-12T14:33:14.514Z,38.33
2019-03-12T14:36:19.677Z,39.32
2019-03-12T14:39:24.821Z,40.17
2019-03-12T14:42:30.016Z,38.48
2019-03-12T14:45:38.052Z,38.76
2019-03-12T14:48:47.670Z,39.17
2019-03-12T14:52:29.545Z,40.43
2019-03-12T14:55:34.695Z,40.63
2019-03-12T14:58:39.865Z,40.97
2019-03-12T15:01:44.926Z,40.38
2019-03-12T15:04:50.157Z,40.66
2019-03-12T15:07:55.400Z,40.45
2019-03-12T15:11:00.522Z,41.12
2019-03-12T15:14:05.631Z,40.54
2019-03-12T15:17:10.831Z,40.67
2019-03-12T15:20:16.031Z,41.63
2019-03-12T15:23:21.219Z,41.72
2019-03-12T15:26:26.317Z,42.28
2019-03-12T15:29:31.437Z,41.96
2019-03-12T15:32:36.688Z,41.98
2019-03-12T15:35:41.852Z,41.69
2019-03-12T15:38:47.894Z,42.63
2019-03-12T15:41:53.060Z,41.76
2019-03-12T15:44:58.315Z,41.71
2019-03-12T15:48:03.479Z,41.90
2019-03-12T15:51:08.688Z,41.82
2019-03-12T15:54:13.964Z,41.85
2019-03-12T15:57:19.079Z,41.60
2019-03-12T16:00:24.172Z,41.50
2019-03-12T16:03:29.355Z,40.70
2019-03-12T16:06:34.574Z,40.39
2019-03-12T16:09:39.719Z,42.49
2019-03-12T16:12:46.500Z,41.28
2019-03-12T16:15:51.673Z,41.50
2019-03-12T16:18:56.808Z,41.24
2019-03-12T16:22:02.013Z,40.49
2019-03-12T16:25:07.898Z,41.38
2019-03-12T16:28:13.057Z,40.92
2019-03-12T16:31:18.228Z,40.48
2019-03-12T16:34:23.464Z,42.14
2019-03-12T16:37:29.095Z,41.43
2019-03-12T16:40:34.220Z,40.06
2019-03-12T16:43:39.382Z,41.38
2019-03-12T16:46:44.550Z,42.32
2019-03-12T16:49:49.659Z,44.99
2019-03-12T16:52:54.903Z,43.85
2019-03-12T16:56:00.075Z,45.07
2019-03-12T16:59:08.287Z,48.53
2019-03-12T17:02:11.966Z,47.76
2019-03-12T17:05:17.125Z,49.40
2019-03-12T17:08:22.305Z,47.99
2019-03-12T17:11:27.457Z,49.56
2019-03-12T17:14:38.805Z,50.10
2019-03-12T17:17:39.524Z,49.66
2019-03-12T17:20:44.724Z,49.59
2019-03-12T17:23:49.975Z,53.10
2019-03-12T17:26:55.060Z,50.34
2019-03-12T17:30:00.440Z,51.90
2019-03-12T17:33:06.863Z,52.73
2019-03-12T17:36:12.190Z,54.63
2019-03-12T17:39:17.305Z,53.29
2019-03-12T17:42:22.725Z,53.93
2019-03-12T17:45:27.880Z,54.29
2019-03-12T17:48:33.051Z,53.75
2019-03-12T17:51:38.135Z,53.31
2019-03-12T17:54:43.283Z,52.11
2019-03-12T17:57:50.738Z,51.79
2019-03-12T18:00:55.222Z,53.07
2019-03-12T18:04:00.357Z,53.27
2019-03-12T18:07:05.646Z,54.36
2019-03-12T18:10:11.823Z,53.37
2019-03-12T18:13:16.999Z,53.48
2019-03-12T18:16:22.111Z,53.76
2019-03-12T18:19:27.337Z,53.63
2019-03-12T18:22:32.541Z,53.53
2019-03-12T18:25:37.921Z,53.87
2019-03-12T18:28:44.461Z,54.58
2019-03-12T18:31:49.689Z,52.87
2019-03-12T18:34:54.972Z,54.28
2019-03-12T18:38:00.278Z,51.79
2019-03-12T18:41:05.763Z,53.80
2019-03-12T18:44:10.888Z,52.75
2019-03-12T18:47:19.046Z,54.66
2019-03-12T18:50:23.301Z,55.24
2019-03-12T18:53:28.540Z,54.56
2019-03-12T18:56:33.807Z,54.50
2019-03-12T18:59:38.883Z,53.42
2019-03-12T19:02:44.024Z,52.09
2019-03-12T19:05:49.246Z,51.47
2019-03-12T19:08:54.411Z,51.46
2019-03-12T19:11:59.502Z,53.05
2019-03-12T19:15:05.402Z,53.02
2019-03-12T19:18:10.677Z,52.38
2019-03-12T19:21:15.783Z,52.59
2019-03-12T19:24:20.956Z,52.00
2019-03-12T19:27:27.152Z,51.09
2019-03-12T19:30:32.556Z,49.61
2019-03-12T19:33:42.520Z,50.63
2019-03-12T19:36:47.661Z,51.84
2019-03-12T19:39:53.011Z,51.66
2019-03-12T19:42:58.133Z,52.75
2019-03-12T19:46:03.293Z,51.05
2019-03-12T19:49:08.497Z,51.27
2019-03-12T19:52:13.689Z,52.79
2019-03-12T19:55:22.285Z,52.56
2019-03-12T19:58:28.647Z,51.28
2019-03-12T20:01:34.551Z,50.67
2019-03-12T20:04:47.320Z,51.26
2019-03-12T20:07:46.562Z,51.07
2019-03-12T20:11:40.784Z,51.10
2019-03-12T20:15:17.377Z,48.13
2019-03-12T20:19:05.408Z,47.80
2019-03-12T20:22:59.433Z,48.13
2019-03-12T20:27:13.221Z,48.28
2019-03-12T20:30:55.400Z,49.58
2019-03-12T20:34:49.014Z,48.45
2019-03-12T20:38:30.906Z,48.39
2019-03-12T20:42:12.036Z,47.47
2019-03-12T20:46:09.154Z,46.89
2019-03-12T20:49:50.475Z,47.36
2019-03-12T20:53:41.626Z,47.82
2019-03-12T20:57:29.581Z,47.06
2019-03-12T21:01:27.861Z,47.49
2019-03-12T21:05:09.195Z,48.28
2019-03-12T21:09:10.648Z,46.74
2019-03-12T21:13:21.568Z,47.69
2019-03-12T21:17:09.764Z,48.91
2019-03-12T21:21:20.228Z,51.50
2019-03-12T21:25:00.440Z,52.75
2019-03-12T21:28:30.618Z,55.31
2019-03-12T21:31:35.751Z,55.30
2019-03-12T21:34:41.206Z,54.48
2019-03-12T21:37:46.379Z,55.00
2019-03-12T21:40:51.618Z,56.75
2019-03-12T21:43:57.842Z,55.43
2019-03-12T21:47:03.052Z,55.15
2019-03-12T21:50:08.412Z,56.46
2019-03-12T21:53:13.683Z,55.81
2019-03-12T21:56:18.897Z,57.04
2019-03-12T21:59:24.346Z,55.97
2019-03-12T22:02:29.456Z,56.38
2019-03-12T22:05:34.539Z,56.08
2019-03-12T22:08:39.700Z,56.27
2019-03-12T22:11:44.976Z,56.28
2019-03-12T22:14:50.206Z,55.51
2019-03-12T22:17:55.324Z,55.50
2019-03-12T22:21:00.462Z,55.25
2019-03-12T22:24:07.629Z,55.94
2019-03-12T22:27:12.863Z,56.68
2019-03-12T22:30:21.070Z,56.61
2019-03-12T22:33:26.334Z,54.80
2019-03-12T22:36:31.482Z,57.13
2019-03-12T22:39:36.638Z,59.16
2019-03-12T22:42:41.904Z,60.10
2019-03-12T22:45:47.042Z,61.20
2019-03-12T22:48:52.250Z,64.60
2019-03-12T22:51:57.342Z,64.90
2019-03-12T22:55:04.106Z,67.99
2019-03-12T22:58:09.490Z,68.80
2019-03-12T23:01:32.444Z,73.20
2019-03-12T23:04:55.504Z,75.45
2019-03-12T23:08:18.393Z,79.62
2019-03-12T23:11:25.195Z,82.83
2019-03-12T23:14:31.962Z,84.61
2019-03-12T23:17:37.274Z,84.21
2019-03-12T23:20:42.530Z,86.66
2019-03-12T23:23:47.658Z,88.39
2019-03-12T23:26:52.846Z,88.89
2019-03-12T23:29:58.046Z,89.41
2019-03-12T23:33:04.381Z,89.41
2019-03-12T23:36:09.647Z,88.66
2019-03-12T23:39:14.957Z,90.28
2019-03-12T23:42:22.501Z,91.11
2019-03-12T23:45:27.719Z,90.37
2019-03-12T23:48:32.856Z,89.41
2019-03-12T23:51:39.094Z,89.90
2019-03-12T23:54:44.388Z,89.95
2019-03-12T23:57:49.531Z,89.02
